createdAt,value
2022-08-18T00:01:48.914Z,26.80
2022-08-18T00:04:35.958Z,26.55
2022-08-18T00:07:10.455Z,27.00
2022-08-18T00:09:40.836Z,27.67
2022-08-18T00:12:41.386Z,32.28
2022-08-18T00:15:16.675Z,27.80
2022-08-18T00:17:45.387Z,26.95
2022-08-18T00:20:20.018Z,28.95
2022-08-18T00:22:48.285Z,29.27
2022-08-18T00:25:18.526Z,29.35
2022-08-18T00:27:46.463Z,29.52
2022-08-18T00:30:17.114Z,28.08
2022-08-18T00:32:48.970Z,31.80
2022-08-18T00:35:42.513Z,29.02
2022-08-18T00:38:24.897Z,27.83
2022-08-18T00:40:55.790Z,28.27
2022-08-18T00:43:46.901Z,29.15
2022-08-18T00:48:48.598Z,29.20
2022-08-18T00:51:45.583Z,27.40
2022-08-18T00:54:19.294Z,27.50
2022-08-18T00:56:53.551Z,26.75
2022-08-18T00:59:27.854Z,27.42
2022-08-18T01:02:02.758Z,26.08
2022-08-18T01:05:03.246Z,27.08
2022-08-18T01:07:39.059Z,26.98
2022-08-18T01:10:08.492Z,27.98
2022-08-18T01:12:45.024Z,27.45
2022-08-18T01:15:29.432Z,25.92
2022-08-18T01:18:41.830Z,26.77
2022-08-18T01:21:42.719Z,27.23
2022-08-18T01:24:13.302Z,26.55
2022-08-18T01:26:46.559Z,28.73
2022-08-18T01:29:43.307Z,26.65
2022-08-18T01:32:15.723Z,26.80
2022-08-18T01:34:48.325Z,26.52
2022-08-18T01:37:18.240Z,27.38
2022-08-18T01:41:27.544Z,25.50
2022-08-18T01:42:38.190Z,25.67
2022-08-18T01:45:08.206Z,27.27
2022-08-18T01:47:47.909Z,27.15
2022-08-18T01:54:16.321Z,27.33
2022-08-18T01:56:44.449Z,26.67
2022-08-18T01:59:14.891Z,27.02
2022-08-18T02:01:48.118Z,28.13
2022-08-18T02:04:34.572Z,27.33
2022-08-18T02:07:11.867Z,27.08
2022-08-18T02:09:42.034Z,27.25
2022-08-18T02:12:10.258Z,27.47
2022-08-18T02:14:39.387Z,28.60
2022-08-18T02:17:10.285Z,27.90
2022-08-18T02:20:04.804Z,28.05
2022-08-18T02:22:32.738Z,28.15
2022-08-18T02:25:00.500Z,29.33
2022-08-18T02:27:29.282Z,29.80
2022-08-18T02:30:01.209Z,29.77
2022-08-18T02:32:29.791Z,31.52
2022-08-18T02:35:22.733Z,32.58
2022-08-18T02:37:50.572Z,34.25
2022-08-18T02:40:23.582Z,34.22
2022-08-18T02:42:53.064Z,34.75
2022-08-18T02:45:46.460Z,38.17
2022-08-18T02:48:14.360Z,40.17
2022-08-18T02:50:47.006Z,40.90
2022-08-18T02:53:22.738Z,40.40
2022-08-18T02:56:41.347Z,39.28
2022-08-18T02:59:14.864Z,37.28
2022-08-18T03:01:46.183Z,38.30
2022-08-18T03:04:18.026Z,39.38
2022-08-18T03:06:46.097Z,38.45
2022-08-18T03:09:17.332Z,43.15
2022-08-18T03:11:46.279Z,43.92
2022-08-18T03:14:15.378Z,44.83
2022-08-18T03:16:54.332Z,46.05
2022-08-18T03:19:25.554Z,48.67
2022-08-18T03:21:53.484Z,50.83
2022-08-18T03:24:23.706Z,47.88
2022-08-18T03:26:53.212Z,48.35
2022-08-18T03:29:21.449Z,45.25
2022-08-18T03:31:50.531Z,40.90
2022-08-18T03:34:20.483Z,37.78
2022-08-18T03:36:50.491Z,34.70
2022-08-18T03:39:20.235Z,36.30
2022-08-18T03:41:58.158Z,35.47
2022-08-18T03:44:32.004Z,35.97
2022-08-18T03:47:03.270Z,33.67
2022-08-18T03:49:34.082Z,32.03
2022-08-18T03:52:02.682Z,34.25
2022-08-18T03:54:39.181Z,33.22
2022-08-18T03:57:12.518Z,32.55
2022-08-18T03:59:46.826Z,33.03
2022-08-18T04:02:15.631Z,31.83
2022-08-18T04:04:43.510Z,32.25
2022-08-18T04:07:14.564Z,31.92
2022-08-18T04:12:16.741Z,30.98
2022-08-18T04:15:10.942Z,30.88
2022-08-18T04:18:03.271Z,31.40
2022-08-18T04:20:26.684Z,33.13
2022-08-18T04:22:56.208Z,32.83
2022-08-18T04:25:24.230Z,31.52
2022-08-18T04:28:00.539Z,29.15
2022-08-18T04:30:29.309Z,31.02
2022-08-18T04:33:22.228Z,32.58
2022-08-18T04:35:53.196Z,29.00
2022-08-18T04:41:14.825Z,27.70
2022-08-18T04:43:42.716Z,29.45
2022-08-18T04:46:15.357Z,30.15
2022-08-18T04:48:45.010Z,28.95
2022-08-18T04:52:34.332Z,27.60
2022-08-18T04:54:54.780Z,26.60
2022-08-18T04:57:23.296Z,28.50
2022-08-18T04:59:55.391Z,31.88
2022-08-18T05:02:24.297Z,29.52
2022-08-18T05:04:55.096Z,27.75
2022-08-18T05:07:23.466Z,27.50
2022-08-18T05:09:55.224Z,28.17
2022-08-18T05:12:26.412Z,27.80
2022-08-18T05:14:57.505Z,30.00
2022-08-18T05:17:30.658Z,28.27
2022-08-18T05:20:01.564Z,29.98
2022-08-18T05:22:39.390Z,29.25
2022-08-18T05:25:16.040Z,30.05
2022-08-18T05:27:44.538Z,29.63
2022-08-18T05:30:15.791Z,29.45
2022-08-18T05:32:50.168Z,29.33
2022-08-18T05:35:27.204Z,29.77
2022-08-18T05:38:17.345Z,30.77
2022-08-18T05:41:14.308Z,32.77
2022-08-18T05:43:51.489Z,30.23
2022-08-18T05:46:30.644Z,32.83
2022-08-18T05:48:58.768Z,33.72
2022-08-18T05:51:45.389Z,31.20
2022-08-18T05:54:34.688Z,35.58
2022-08-18T05:57:13.521Z,35.10
2022-08-18T05:59:48.162Z,42.67
2022-08-18T06:02:46.046Z,37.78
2022-08-18T11:43:42.191Z,11.32
2022-08-18T11:52:57.285Z,11.10
2022-08-18T12:05:56.247Z,10.55
2022-08-18T12:08:58.012Z,11.38
2022-08-18T12:11:34.083Z,11.98
2022-08-18T12:17:14.737Z,11.13
2022-08-18T12:19:42.781Z,12.07
2022-08-18T12:22:20.872Z,12.10
2022-08-18T12:24:50.214Z,11.15
2022-08-18T12:27:22.853Z,10.80
2022-08-18T12:29:54.975Z,11.88
2022-08-18T12:39:23.671Z,11.68
2022-08-18T12:42:05.216Z,11.60
2022-08-18T12:44:43.014Z,12.15
2022-08-18T12:47:31.819Z,11.90
2022-08-18T12:50:05.645Z,11.40
2022-08-18T12:52:38.404Z,10.75
2022-08-18T12:55:21.381Z,10.18
2022-08-18T12:57:54.488Z,11.45
2022-08-18T13:00:28.142Z,11.60
2022-08-18T13:02:57.954Z,10.50
2022-08-18T13:05:26.672Z,11.45
2022-08-18T13:08:03.950Z,10.93
2022-08-18T13:10:43.012Z,11.80
2022-08-18T13:13:17.068Z,10.88
2022-08-18T13:15:57.683Z,11.50
2022-08-18T13:18:38.452Z,11.70
2022-08-18T13:21:13.125Z,10.93
2022-08-18T13:23:45.020Z,10.90
2022-08-18T13:26:25.388Z,10.98
2022-08-18T13:31:55.560Z,10.15
2022-08-18T13:37:11.167Z,11.27
2022-08-18T13:39:43.931Z,13.52
2022-08-18T13:58:21.410Z,14.30
2022-08-18T14:04:22.845Z,20.63
2022-08-18T14:06:56.988Z,13.75
2022-08-18T14:10:04.580Z,13.38
2022-08-18T14:12:41.114Z,17.00
2022-08-18T14:15:14.027Z,14.57
2022-08-18T14:17:44.211Z,13.10
2022-08-18T14:20:37.566Z,14.27
2022-08-18T14:23:31.897Z,11.60
2022-08-18T14:26:23.835Z,13.73
2022-08-18T14:28:55.030Z,10.65
2022-08-18T14:31:23.509Z,11.85
2022-08-18T14:33:54.100Z,11.73
2022-08-18T14:39:00.008Z,13.52
2022-08-18T14:41:29.309Z,12.00
2022-08-18T14:46:52.282Z,11.60
2022-08-18T14:49:28.062Z,12.23
2022-08-18T14:52:01.440Z,11.73
2022-08-18T14:54:55.733Z,11.57
2022-08-18T14:57:23.811Z,13.57
2022-08-18T14:59:55.553Z,12.43
2022-08-18T15:02:25.377Z,11.40
2022-08-18T15:04:57.704Z,10.45
2022-08-18T15:07:26.632Z,10.93
2022-08-18T15:10:14.924Z,10.68
2022-08-18T15:12:44.726Z,11.82
2022-08-18T15:15:17.717Z,10.65
2022-08-18T15:17:50.360Z,11.15
2022-08-18T15:20:29.495Z,12.65
2022-08-18T15:23:24.677Z,11.68
2022-08-18T15:25:59.945Z,11.75
2022-08-18T15:28:28.253Z,11.07
2022-08-18T15:33:51.268Z,12.60
2022-08-18T15:39:10.784Z,11.43
2022-08-18T15:41:48.868Z,12.18
2022-08-18T15:44:21.822Z,11.57
2022-08-18T15:59:09.468Z,12.38
2022-08-18T16:07:41.280Z,12.63
2022-08-18T16:13:42.900Z,12.27
2022-08-18T16:16:43.757Z,11.60
2022-08-18T16:19:18.958Z,11.75
2022-08-18T16:24:55.095Z,12.32
2022-08-18T16:27:23.913Z,12.45
2022-08-18T16:29:52.712Z,11.32
2022-08-18T16:32:20.720Z,12.35
2022-08-18T16:34:49.193Z,11.93
2022-08-18T16:37:17.543Z,11.65
2022-08-18T16:39:49.329Z,13.00
2022-08-18T16:42:21.504Z,11.98
2022-08-18T16:45:11.385Z,12.05
2022-08-18T16:47:42.033Z,12.75
2022-08-18T16:50:21.064Z,13.23
2022-08-18T16:52:58.859Z,12.60
2022-08-18T16:55:39.620Z,12.95
2022-08-18T16:58:32.418Z,12.82
2022-08-18T17:01:48.495Z,13.15
2022-08-18T17:07:27.380Z,12.82
2022-08-18T17:09:57.500Z,11.80
2022-08-18T17:12:33.463Z,12.48
2022-08-18T17:24:35.933Z,12.63
2022-08-18T17:27:19.217Z,12.63
2022-08-18T17:30:21.573Z,13.52
2022-08-18T17:36:06.642Z,14.18
2022-08-18T17:58:27.423Z,16.50
2022-08-18T18:00:57.861Z,14.45
2022-08-18T18:03:28.669Z,14.82
2022-08-18T18:06:09.768Z,14.63
2022-08-18T18:08:56.759Z,17.08
2022-08-18T18:11:28.880Z,17.90
2022-08-18T18:14:00.643Z,14.80
2022-08-18T18:16:35.460Z,14.85
2022-08-18T18:19:12.990Z,14.52
2022-08-18T18:22:00.458Z,18.95
2022-08-18T18:24:32.639Z,15.65
2022-08-18T18:27:02.310Z,14.25
2022-08-18T18:29:38.044Z,15.27
2022-08-18T18:32:26.685Z,16.70
2022-08-18T18:35:18.820Z,14.88
2022-08-18T18:37:52.019Z,15.52
2022-08-18T18:47:49.369Z,16.15
2022-08-18T18:51:13.636Z,15.80
2022-08-18T18:54:04.154Z,14.88
2022-08-18T18:56:51.314Z,16.10
2022-08-18T18:59:53.108Z,16.45
2022-08-18T19:02:40.183Z,24.15
2022-08-18T19:09:05.907Z,16.17
2022-08-18T19:24:27.731Z,15.35
2022-08-18T19:27:04.211Z,14.82
2022-08-18T19:29:43.889Z,15.38
2022-08-18T19:32:17.148Z,15.23
2022-08-18T19:34:51.562Z,15.85
2022-08-18T19:37:40.455Z,15.93
2022-08-18T19:40:21.738Z,16.52
2022-08-18T19:43:30.015Z,17.30
2022-08-18T19:46:11.098Z,16.30
2022-08-18T19:48:54.818Z,15.32
2022-08-18T19:51:40.170Z,18.10
2022-08-18T19:54:40.734Z,21.80
2022-08-18T19:57:27.309Z,18.05
2022-08-18T20:00:24.097Z,18.65
2022-08-18T20:03:28.412Z,16.85
2022-08-18T20:06:27.627Z,16.52
2022-08-18T20:15:57.432Z,15.10
2022-08-18T20:18:35.510Z,17.33
2022-08-18T20:21:16.507Z,17.13
2022-08-18T20:23:57.808Z,15.93
2022-08-18T20:26:41.829Z,15.15
2022-08-18T20:29:18.742Z,16.25
2022-08-18T20:32:00.752Z,17.38
2022-08-18T20:34:37.273Z,16.48
2022-08-18T20:37:09.542Z,17.23
2022-08-18T20:39:47.199Z,23.38
2022-08-18T20:42:21.980Z,36.08
2022-08-18T20:44:52.582Z,23.15
2022-08-18T20:47:37.130Z,19.08
2022-08-18T20:50:43.492Z,17.95
2022-08-18T20:53:55.288Z,15.20
2022-08-18T20:56:43.605Z,17.13
2022-08-18T20:59:20.986Z,18.48
2022-08-18T21:02:07.902Z,15.63
2022-08-18T21:04:43.939Z,17.98
2022-08-18T21:07:37.169Z,17.77
2022-08-18T21:10:13.971Z,16.48
2022-08-18T21:12:52.968Z,16.95
2022-08-18T21:15:28.778Z,16.77
2022-08-18T21:18:18.268Z,15.75
2022-08-18T21:20:59.489Z,16.27
2022-08-18T21:23:36.490Z,15.23
2022-08-18T21:26:11.493Z,15.73
2022-08-18T21:28:44.593Z,19.77
2022-08-18T21:31:44.086Z,16.02
2022-08-18T21:34:18.761Z,14.98
2022-08-18T21:36:56.784Z,16.38
2022-08-18T21:39:25.987Z,14.35
2022-08-18T21:42:00.670Z,16.17
2022-08-18T21:44:45.446Z,14.38
2022-08-18T21:47:24.870Z,20.63
2022-08-18T21:50:18.760Z,17.90
2022-08-18T21:53:05.541Z,16.52
2022-08-18T21:55:40.490Z,15.40
2022-08-18T21:58:16.954Z,18.38
2022-08-18T22:00:47.067Z,14.40
2022-08-18T22:03:27.318Z,17.50
2022-08-18T22:06:14.725Z,15.90
2022-08-18T22:09:07.256Z,14.63
2022-08-18T22:12:01.972Z,19.25
2022-08-18T22:14:36.139Z,21.25
2022-08-18T22:17:53.141Z,16.73
2022-08-18T22:20:47.804Z,23.80
2022-08-18T22:23:34.313Z,16.30
2022-08-18T22:26:11.346Z,16.05
2022-08-18T22:29:02.401Z,15.38
2022-08-18T22:34:27.943Z,15.23
2022-08-18T22:37:50.906Z,14.85
2022-08-18T22:40:21.913Z,14.45
2022-08-18T22:43:16.863Z,14.25
2022-08-18T22:45:45.169Z,15.25
2022-08-18T22:48:14.778Z,15.25
2022-08-18T22:50:45.417Z,15.40
2022-08-18T22:53:19.226Z,15.10
2022-08-18T22:55:47.879Z,15.93
2022-08-18T22:58:16.040Z,15.55
2022-08-18T23:01:05.169Z,15.48
2022-08-18T23:03:44.427Z,14.60
2022-08-18T23:06:14.140Z,15.13
2022-08-18T23:08:54.895Z,15.45
2022-08-18T23:11:25.225Z,14.60
2022-08-18T23:14:20.067Z,16.05
2022-08-18T23:16:50.028Z,14.88
2022-08-18T23:19:20.415Z,17.02
2022-08-18T23:21:49.221Z,17.77
2022-08-18T23:24:43.660Z,18.95
2022-08-18T23:27:16.131Z,15.60
2022-08-18T23:29:44.695Z,16.27
2022-08-18T23:32:14.303Z,16.48
2022-08-18T23:35:07.512Z,15.52
2022-08-18T23:38:01.952Z,17.25
2022-08-18T23:40:30.641Z,16.35
2022-08-18T23:42:59.571Z,15.85
2022-08-18T23:45:30.692Z,19.42
2022-08-18T23:47:58.745Z,18.10
2022-08-18T23:50:29.665Z,15.68
2022-08-18T23:55:26.290Z,16.00
2022-08-18T23:57:54.335Z,16.27
